createdAt,value
2018-04-16T00:03:20.262Z,74.10
2018-04-16T00:06:42.715Z,74.40
2018-04-16T00:10:05.157Z,74.50
2018-04-16T00:13:27.625Z,74.60
2018-04-16T00:16:50.087Z,74.70
2018-04-16T00:20:12.525Z,75.10
2018-04-16T00:23:34.975Z,75.80
2018-04-16T00:26:57.426Z,76.30
2018-04-16T00:30:20.634Z,77.30
2018-04-16T00:33:48.821Z,77.30
2018-04-16T00:37:16.988Z,77.70
2018-04-16T00:40:45.220Z,77.40
2018-04-16T00:44:14.272Z,77.50
2018-04-16T00:47:42.426Z,77.50
2018-04-16T00:51:11.336Z,77.30
2018-04-16T00:54:39.475Z,77.30
2018-04-16T00:58:07.691Z,77.30
2018-04-16T01:01:35.878Z,77.40
2018-04-16T01:05:04.047Z,78.00
2018-04-16T01:08:32.907Z,78.50
2018-04-16T01:12:00.962Z,78.50
2018-04-16T01:15:29.784Z,78.60
2018-04-16T01:18:57.971Z,78.50
2018-04-16T01:22:36.058Z,79.00
2018-04-16T01:26:04.206Z,79.00
2018-04-16T01:29:33.134Z,79.20
2018-04-16T01:33:01.170Z,79.20
2018-04-16T01:36:29.362Z,79.10
2018-04-16T01:39:57.532Z,79.20
2018-04-16T01:43:25.749Z,79.20
2018-04-16T01:46:53.982Z,79.10
2018-04-16T01:50:22.090Z,79.10
2018-04-16T01:53:50.226Z,79.30
2018-04-16T01:57:18.403Z,79.40
2018-04-16T02:00:46.582Z,79.60
2018-04-16T02:04:15.395Z,79.70
2018-04-16T02:07:43.582Z,80.30
2018-04-16T02:11:11.726Z,79.60
2018-04-16T02:14:40.771Z,78.90
2018-04-16T02:18:08.872Z,78.90
2018-04-16T02:21:36.918Z,78.70
2018-04-16T02:25:05.059Z,77.90
2018-04-16T02:28:33.190Z,76.90
2018-04-16T02:32:01.327Z,76.30
2018-04-16T02:35:29.511Z,75.60
2018-04-16T02:38:57.722Z,75.40
2018-04-16T02:42:25.888Z,75.00
2018-04-16T02:45:54.117Z,74.40
2018-04-16T02:49:22.138Z,74.20
2018-04-16T02:52:51.078Z,73.70
2018-04-16T02:56:19.147Z,73.70
2018-04-16T02:59:48.075Z,74.00
2018-04-16T03:03:17.030Z,74.20
2018-04-16T03:06:45.313Z,74.20
2018-04-16T03:10:13.418Z,74.50
2018-04-16T03:13:41.494Z,74.80
2018-04-16T03:17:09.702Z,74.80
2018-04-16T03:20:38.690Z,74.80
2018-04-16T03:24:06.828Z,75.10
2018-04-16T03:27:34.991Z,75.20
2018-04-16T03:31:04.154Z,74.80
2018-04-16T03:34:32.315Z,74.80
2018-04-16T03:38:00.488Z,74.90
2018-04-16T03:41:28.646Z,75.00
2018-04-16T03:44:56.805Z,75.10
2018-04-16T03:48:25.047Z,75.00
2018-04-16T03:51:48.914Z,75.20
2018-04-16T03:55:13.842Z,75.10
2018-04-16T03:58:36.225Z,75.40
2018-04-16T04:01:58.674Z,75.60
2018-04-16T04:05:21.874Z,77.00
2018-04-16T04:08:44.317Z,76.90
2018-04-16T04:12:07.523Z,78.80
2018-04-16T04:15:29.969Z,78.80
2018-04-16T04:18:52.406Z,80.10
2018-04-16T04:22:14.853Z,80.40
2018-04-16T04:25:49.935Z,81.10
2018-04-16T04:29:24.416Z,81.60
2018-04-16T04:32:47.623Z,82.30
2018-04-16T04:36:10.061Z,82.30
2018-04-16T04:39:33.275Z,82.80
2018-04-16T04:42:55.717Z,82.80
2018-04-16T04:46:18.162Z,83.00
2018-04-16T04:49:41.371Z,83.60
2018-04-16T04:53:03.878Z,83.40
2018-04-16T04:56:26.282Z,83.70
2018-04-16T04:59:49.491Z,84.20
2018-04-16T05:03:12.367Z,84.20
2018-04-16T05:06:34.809Z,84.70
2018-04-16T05:09:58.025Z,85.60
2018-04-16T05:13:20.471Z,85.60
2018-04-16T05:16:42.914Z,85.80
2018-04-16T05:20:06.118Z,86.90
2018-04-16T05:23:28.557Z,86.00
2018-04-16T05:26:51.758Z,86.30
2018-04-16T05:30:14.202Z,86.30
2018-04-16T05:33:37.420Z,86.90
2018-04-16T05:36:59.853Z,86.80
2018-04-16T05:40:23.071Z,87.50
2018-04-16T05:43:45.520Z,88.10
2018-04-16T05:47:07.954Z,87.40
2018-04-16T05:50:30.393Z,87.50
2018-04-16T05:53:52.838Z,87.60
2018-04-16T05:57:15.279Z,87.80
2018-04-16T06:00:37.722Z,88.20
2018-04-16T06:04:00.931Z,88.60
2018-04-16T06:07:23.365Z,88.60
2018-04-16T06:10:46.574Z,89.20
2018-04-16T06:14:09.025Z,89.00
2018-04-16T06:17:32.241Z,89.80
2018-04-16T06:20:54.685Z,89.60
2018-04-16T06:24:17.134Z,89.80
2018-04-16T06:27:40.338Z,90.20
2018-04-16T06:31:02.781Z,90.20
2018-04-16T06:34:25.998Z,90.30
2018-04-16T06:37:48.442Z,90.30
2018-04-16T06:41:10.890Z,90.50
2018-04-16T06:44:34.097Z,90.50
2018-04-16T06:47:56.547Z,90.50
2018-04-16T06:51:19.767Z,90.80
2018-04-16T06:54:42.229Z,90.80
2018-04-16T06:58:04.654Z,90.80
2018-04-16T07:01:27.879Z,90.70
2018-04-16T07:04:50.341Z,90.70
2018-04-16T07:08:12.787Z,90.50
2018-04-16T07:11:35.250Z,90.60
2018-04-16T07:14:57.703Z,90.60
2018-04-16T07:18:20.918Z,90.40
2018-04-16T07:21:43.368Z,90.40
2018-04-16T07:25:05.814Z,90.60
2018-04-16T07:28:29.015Z,90.50
2018-04-16T07:31:51.471Z,90.40
2018-04-16T07:35:13.966Z,90.50
2018-04-16T07:38:36.407Z,90.70
2018-04-16T07:41:58.851Z,90.70
2018-04-16T07:45:22.962Z,90.40
2018-04-16T07:48:46.178Z,90.00
2018-04-16T07:52:08.627Z,90.00
2018-04-16T07:55:31.075Z,90.20
2018-04-16T07:58:54.287Z,90.00
2018-04-16T08:02:16.730Z,90.00
2018-04-16T08:05:39.178Z,90.20
2018-04-16T08:09:02.386Z,90.40
2018-04-16T08:12:24.834Z,90.40
2018-04-16T08:15:48.049Z,90.30
2018-04-16T08:19:10.485Z,90.30
2018-04-16T08:22:32.943Z,90.30
2018-04-16T08:25:56.162Z,90.20
2018-04-16T08:29:18.669Z,90.20
2018-04-16T08:32:41.117Z,90.40
2018-04-16T08:36:03.567Z,90.30
2018-04-16T08:39:26.020Z,90.30
2018-04-16T08:42:48.461Z,90.10
2018-04-16T08:46:11.676Z,90.00
2018-04-16T08:49:34.123Z,90.00
2018-04-16T08:52:56.576Z,89.30
2018-04-16T08:56:19.790Z,89.70
2018-04-16T08:59:42.246Z,89.70
2018-04-16T09:03:04.681Z,89.50
2018-04-16T09:06:27.903Z,88.40
2018-04-16T09:09:50.354Z,88.30
2018-04-16T09:13:12.798Z,88.20
2018-04-16T09:16:35.246Z,88.70
2018-04-16T09:19:58.461Z,88.40
2018-04-16T09:23:20.906Z,88.40
2018-04-16T09:26:44.124Z,87.50
2018-04-16T09:30:06.565Z,87.50
2018-04-16T09:33:29.012Z,88.00
2018-04-16T09:36:52.327Z,86.40
2018-04-16T09:40:14.762Z,86.40
2018-04-16T09:43:37.965Z,87.50
2018-04-16T09:47:00.413Z,87.50
2018-04-16T09:50:23.685Z,84.90
2018-04-16T09:53:46.073Z,84.80
2018-04-16T09:57:08.527Z,84.50
2018-04-16T10:04:33.030Z,83.70
2018-04-16T10:07:55.470Z,83.70
2018-04-16T10:11:17.917Z,85.00
2018-04-16T10:14:41.118Z,83.40
2018-04-16T10:18:03.629Z,83.40
2018-04-16T10:21:26.019Z,81.60
2018-04-16T10:24:49.230Z,79.30
2018-04-16T10:28:11.684Z,79.30
2018-04-16T10:31:34.898Z,79.60
2018-04-16T10:34:57.334Z,79.60
2018-04-16T10:38:19.787Z,79.50
2018-04-16T10:41:43.004Z,78.40
2018-04-16T10:45:05.466Z,78.40
2018-04-16T10:48:27.913Z,79.50
2018-04-16T10:51:50.357Z,80.10
2018-04-16T10:55:13.578Z,80.30
2018-04-16T10:58:36.012Z,80.30
2018-04-16T11:01:59.233Z,79.20
2018-04-16T11:05:21.688Z,79.20
2018-04-16T11:08:44.130Z,79.20
2018-04-16T11:12:07.341Z,80.80
2018-04-16T11:15:29.821Z,80.80
2018-04-16T11:18:52.266Z,81.10
2018-04-16T11:22:14.714Z,83.20
2018-04-16T11:25:37.931Z,82.40
2018-04-16T11:29:00.392Z,82.40
2018-04-16T11:32:22.878Z,80.00
2018-04-16T11:35:45.274Z,80.30
2018-04-16T11:39:08.481Z,76.50
2018-04-16T11:42:30.930Z,76.30
2018-04-16T11:45:54.147Z,76.10
2018-04-16T11:49:16.596Z,76.10
2018-04-16T11:52:39.038Z,73.30
2018-04-16T11:56:02.254Z,73.00
2018-04-16T11:59:24.685Z,73.00
2018-04-16T12:02:47.904Z,71.20
2018-04-16T12:06:10.353Z,71.00
2018-04-16T12:09:32.801Z,71.30
2018-04-16T12:12:56.009Z,73.00
2018-04-16T12:16:18.458Z,72.80
2018-04-16T12:19:41.661Z,74.10
2018-04-16T12:23:04.154Z,74.10
2018-04-16T12:26:26.598Z,74.70
2018-04-16T12:29:49.047Z,77.20
2018-04-16T12:33:11.502Z,80.80
2018-04-16T12:36:34.742Z,81.00
2018-04-16T12:39:57.181Z,80.90
2018-04-16T12:43:19.634Z,81.90
2018-04-16T12:46:42.082Z,81.50
2018-04-16T12:50:05.286Z,83.90
2018-04-16T12:53:27.740Z,84.60
2018-04-16T12:56:50.187Z,83.60
2018-04-16T13:00:13.391Z,84.80
2018-04-16T13:03:35.833Z,84.70
2018-04-16T13:06:59.054Z,85.70
2018-04-16T13:10:21.499Z,85.60
2018-04-16T13:13:43.938Z,85.90
2018-04-16T13:17:07.154Z,87.20
2018-04-16T13:20:29.601Z,87.20
2018-04-16T13:23:52.815Z,88.30
2018-04-16T13:27:15.293Z,88.20
2018-04-16T13:30:37.730Z,88.50
2018-04-16T13:34:00.182Z,87.70
2018-04-16T13:37:22.638Z,87.40
2018-04-16T13:40:45.870Z,87.10
2018-04-16T13:44:08.317Z,87.00
2018-04-16T13:47:30.765Z,86.80
2018-04-16T13:50:53.268Z,85.70
2018-04-16T13:54:15.737Z,85.50
2018-04-16T13:57:38.175Z,83.90
2018-04-16T14:01:00.626Z,83.20
2018-04-16T14:04:23.070Z,84.00
2018-04-16T14:07:46.982Z,82.50
2018-04-16T14:11:09.425Z,82.40
2018-04-16T14:14:31.874Z,81.60
2018-04-16T14:17:54.334Z,79.80
2018-04-16T14:21:16.775Z,79.80
2018-04-16T14:24:39.217Z,79.00
2018-04-16T14:28:01.669Z,79.30
2018-04-16T14:31:24.888Z,77.90
2018-04-16T14:34:47.356Z,77.90
2018-04-16T14:38:09.826Z,76.60
2018-04-16T14:41:32.258Z,75.50
2018-04-16T14:44:54.702Z,75.70
2018-04-16T14:48:17.906Z,73.10
2018-04-16T14:51:40.350Z,73.00
2018-04-16T14:55:03.551Z,72.40
2018-04-16T14:58:25.998Z,72.20
2018-04-16T15:01:49.228Z,70.40
2018-04-16T15:05:11.654Z,70.40
2018-04-16T15:08:34.857Z,68.80
2018-04-16T15:11:57.297Z,68.70
2018-04-16T15:15:20.503Z,69.50
2018-04-16T15:18:42.945Z,69.50
2018-04-16T15:22:06.155Z,68.40
2018-04-16T15:25:28.590Z,68.40
2018-04-16T15:28:51.795Z,68.30
2018-04-16T15:32:14.284Z,68.10
2018-04-16T15:35:36.710Z,66.60
2018-04-16T15:38:59.170Z,66.60
2018-04-16T15:42:22.378Z,66.90
2018-04-16T15:45:44.819Z,66.20
2018-04-16T15:49:08.030Z,66.80
2018-04-16T15:52:30.471Z,66.80
2018-04-16T15:55:52.937Z,68.70
2018-04-16T15:59:16.121Z,71.50
2018-04-16T16:02:38.562Z,71.40
2018-04-16T16:06:01.762Z,71.60
2018-04-16T16:09:24.208Z,71.50
2018-04-16T16:12:46.646Z,73.10
2018-04-16T16:16:09.859Z,72.60
2018-04-16T16:19:33.067Z,73.10
2018-04-16T16:22:55.511Z,73.00
2018-04-16T16:26:18.722Z,73.70
2018-04-16T16:29:41.179Z,73.70
2018-04-16T16:33:03.622Z,74.20
2018-04-16T16:36:26.826Z,74.40
2018-04-16T16:39:49.266Z,74.30
2018-04-16T16:43:12.475Z,73.60
2018-04-16T16:46:34.923Z,73.60
2018-04-16T16:49:58.127Z,73.70
2018-04-16T16:53:20.570Z,73.60
2018-04-16T16:56:43.772Z,72.60
2018-04-16T17:00:06.218Z,72.60
2018-04-16T17:03:29.439Z,72.60
2018-04-16T17:06:51.874Z,72.50
2018-04-16T17:10:14.321Z,72.10
2018-04-16T17:13:37.530Z,71.60
2018-04-16T17:16:59.969Z,71.60
2018-04-16T17:20:23.178Z,71.40
2018-04-16T17:23:45.634Z,71.40
2018-04-16T17:27:08.090Z,71.20
2018-04-16T17:30:31.571Z,70.70
2018-04-16T17:33:54.006Z,70.70
2018-04-16T17:37:16.437Z,71.30
2018-04-16T17:40:38.886Z,71.60
2018-04-16T17:44:01.328Z,71.90
2018-04-16T17:47:24.526Z,73.40
2018-04-16T17:50:47.736Z,73.50
2018-04-16T17:54:10.179Z,73.40
2018-04-16T17:57:32.620Z,73.70
2018-04-16T18:00:55.070Z,73.90
2018-04-16T18:04:17.511Z,74.10
2018-04-16T18:07:39.953Z,74.10
2018-04-16T18:11:02.386Z,74.50
2018-04-16T18:14:25.597Z,74.60
2018-04-16T18:17:48.084Z,74.60
2018-04-16T18:21:10.506Z,75.10
2018-04-16T18:24:33.718Z,75.50
2018-04-16T18:27:56.188Z,75.50
2018-04-16T18:31:18.614Z,75.70
2018-04-16T18:34:41.838Z,76.00
2018-04-16T18:38:04.282Z,76.00
2018-04-16T18:41:26.731Z,76.10
2018-04-16T18:44:49.966Z,76.50
2018-04-16T18:48:13.345Z,76.70
2018-04-16T18:51:35.789Z,76.70
2018-04-16T18:54:58.279Z,77.00
2018-04-16T18:58:20.751Z,76.90
2018-04-16T19:01:43.238Z,77.40
2018-04-16T19:05:05.699Z,77.60
2018-04-16T19:08:28.140Z,77.60
2018-04-16T19:11:50.582Z,77.80
2018-04-16T19:15:13.023Z,78.00
2018-04-16T19:18:36.231Z,78.10
2018-04-16T19:21:58.681Z,78.10
2018-04-16T19:25:21.129Z,78.20
2018-04-16T19:28:44.335Z,78.70
2018-04-16T19:32:06.771Z,78.70
2018-04-16T19:35:29.990Z,78.70
2018-04-16T19:38:52.434Z,78.70
2018-04-16T19:42:21.386Z,78.80
2018-04-16T19:45:43.838Z,78.80
2018-04-16T19:49:12.006Z,78.70
2018-04-16T19:52:35.210Z,78.70
2018-04-16T19:56:03.426Z,78.70
2018-04-16T19:59:25.867Z,78.70
2018-04-16T20:02:54.654Z,79.10
2018-04-16T20:06:17.099Z,79.10
2018-04-16T20:09:39.561Z,79.60
2018-04-16T20:13:02.008Z,79.80
2018-04-16T20:16:24.462Z,80.00
2018-04-16T20:19:46.914Z,80.30
2018-04-16T20:23:09.348Z,80.60
2018-04-16T20:26:31.790Z,80.80
2018-04-16T20:29:54.230Z,81.00
2018-04-16T20:33:16.685Z,81.20
2018-04-16T20:36:39.125Z,81.30
2018-04-16T20:40:02.329Z,81.90
2018-04-16T20:43:24.771Z,81.80
2018-04-16T20:46:47.978Z,82.40
2018-04-16T20:50:10.427Z,82.20
2018-04-16T20:53:33.634Z,82.80
2018-04-16T20:56:56.092Z,82.80
2018-04-16T21:00:18.519Z,82.90
2018-04-16T21:03:41.721Z,83.30
2018-04-16T21:07:04.987Z,83.50
2018-04-16T21:10:27.470Z,83.40
2018-04-16T21:13:50.719Z,84.00
2018-04-16T21:17:13.206Z,83.80
2018-04-16T21:20:35.698Z,83.90
2018-04-16T21:23:58.942Z,84.30
2018-04-16T21:27:21.428Z,84.30
2018-04-16T21:30:43.914Z,84.70
2018-04-16T21:34:06.410Z,84.90
2018-04-16T21:37:28.897Z,85.10
2018-04-16T21:40:51.378Z,85.10
2018-04-16T21:44:13.862Z,85.60
2018-04-16T21:47:37.122Z,86.00
2018-04-16T21:50:59.635Z,86.00
2018-04-16T21:54:22.117Z,85.80
2018-04-16T21:57:44.601Z,85.90
2018-04-16T22:01:07.085Z,85.90
2018-04-16T22:04:29.558Z,86.00
2018-04-16T22:07:52.042Z,86.20
2018-04-16T22:11:15.418Z,86.80
2018-04-16T22:14:37.926Z,86.70
2018-04-16T22:18:00.403Z,86.90
2018-04-16T22:21:22.885Z,87.30
2018-04-16T22:24:46.147Z,87.60
2018-04-16T22:28:08.633Z,87.60
2018-04-16T22:31:31.167Z,88.00
2018-04-16T22:34:53.657Z,88.10
2018-04-16T22:38:16.134Z,88.20
2018-04-16T22:41:38.624Z,88.30
2018-04-16T22:45:01.110Z,88.30
2018-04-16T22:48:24.412Z,88.40
2018-04-16T22:51:46.896Z,88.40
2018-04-16T22:55:09.381Z,88.30
2018-04-16T22:58:31.859Z,88.60
2018-04-16T23:01:54.337Z,88.60
2018-04-16T23:05:16.822Z,88.60
2018-04-16T23:08:40.070Z,89.00
2018-04-16T23:12:02.558Z,88.90
2018-04-16T23:15:25.043Z,88.90
2018-04-16T23:18:48.285Z,89.30
2018-04-16T23:22:10.765Z,89.20
2018-04-16T23:25:33.254Z,89.40
2018-04-16T23:28:56.493Z,89.50
2018-04-16T23:32:18.973Z,89.40
2018-04-16T23:35:41.455Z,89.40
2018-04-16T23:39:03.926Z,89.40
2018-04-16T23:42:27.173Z,89.50
2018-04-16T23:45:49.739Z,89.50
2018-04-16T23:49:12.206Z,89.40
2018-04-16T23:52:34.687Z,89.40
2018-04-16T23:55:57.165Z,89.30
2018-04-16T23:59:19.637Z,89.20
